Time;durP1;ratioP1;P1;durP2;ratioP2;P2;SDS_P1;SDS_P2;PMS_P1;PMS_P2;Temp;Humidity;BMP_temperature;BMP_pressure;BME280_temperature;BME280_humidity;BME280_pressure;Samples;Min_cycle;Max_cycle;Signal;HPM_P1;HPM_P2
2021/04/01 00:02:08;;;;;;;3.60;2.17;;;;;;;;;;5051441;28;20377;-76
2021/04/01 00:04:34;;;;;;;7.50;2.40;;;;;;;;;;5050232;28;20440;-76
2021/04/01 00:07:01;;;;;;;3.30;2.00;;;;;;;;;;5051250;28;20386;-76
2021/04/01 00:09:27;;;;;;;3.10;2.20;;;;;;;;;;5050445;28;20883;-76
2021/04/01 00:11:53;;;;;;;2.85;2.28;;;;;;;;;;5048128;28;20868;-76
2021/04/01 00:14:21;;;;;;;2.60;2.13;;;;;;;;;;5013285;28;20407;-76
2021/04/01 00:16:47;;;;;;;2.72;2.00;;;;;;;;;;5030568;28;20384;-76
2021/04/01 00:19:13;;;;;;;4.20;2.27;;;;;;;;;;5030920;28;20410;-76
2021/04/01 00:21:39;;;;;;;3.15;2.30;;;;;;;;;;5030545;28;20433;-76
2021/04/01 00:24:05;;;;;;;3.40;1.88;;;;;;;;;;5031127;28;20840;-76
2021/04/01 00:26:31;;;;;;;5.07;2.50;;;;;;;;;;5030225;28;20732;-76
2021/04/01 00:28:57;;;;;;;3.00;2.10;;;;;;;;;;5031020;28;20371;-76
2021/04/01 00:31:23;;;;;;;4.85;2.10;;;;;;;;;;5030239;28;20459;-78
2021/04/01 00:33:49;;;;;;;2.55;2.20;;;;;;;;;;5030319;28;20934;-75
2021/04/01 00:36:15;;;;;;;3.65;2.03;;;;;;;;;;5030792;28;20379;-76
2021/04/01 00:38:41;;;;;;;3.40;2.40;;;;;;;;;;5029715;28;20386;-76
2021/04/01 00:41:07;;;;;;;2.40;2.00;;;;;;;;;;5030779;28;20766;-76
2021/04/01 00:43:33;;;;;;;3.42;2.10;;;;;;;;;;5012565;28;20391;-77
2021/04/01 00:45:59;;;;;;;2.22;1.90;;;;;;;;;;5030624;28;20374;-76
2021/04/01 00:48:25;;;;;;;5.60;2.20;;;;;;;;;;5012336;28;20383;-79
2021/04/01 00:50:51;;;;;;;3.10;2.30;;;;;;;;;;5030556;28;20414;-76
2021/04/01 00:53:17;;;;;;;4.40;2.10;;;;;;;;;;5013105;28;20851;-77
2021/04/01 00:55:43;;;;;;;3.17;2.30;;;;;;;;;;5029470;28;20375;-77
2021/04/01 00:58:10;;;;;;;3.50;2.20;;;;;;;;;;5030315;28;20414;-76
2021/04/01 01:00:37;;;;;;;3.90;2.10;;;;;;;;;;5029534;28;20399;-77
2021/04/01 01:03:03;;;;;;;7.88;2.60;;;;;;;;;;5030604;28;20414;-76
2021/04/01 01:05:30;;;;;;;3.80;1.90;;;;;;;;;;5029675;28;20415;-76
2021/04/01 01:07:57;;;;;;;2.40;2.20;;;;;;;;;;5030148;28;20418;-76
2021/04/01 01:10:29;;;;;;;4.10;2.40;;;11.50;99.20;;;;;;5012883;28;20776;-76
2021/04/01 01:12:57;;;;;;;3.63;2.00;;;11.90;97.70;;;;;;5041347;28;20377;-76
2021/04/01 01:15:23;;;;;;;3.75;2.10;;;11.40;99.90;;;;;;5050258;28;20457;-76
2021/04/01 01:17:51;;;;;;;5.85;2.55;;;11.20;98.00;;;;;;5049674;28;20378;-76
2021/04/01 01:20:19;;;;;;;6.40;2.50;;;11.40;98.40;;;;;;5032716;28;20381;-76
2021/04/01 01:22:47;;;;;;;4.97;2.50;;;;;;;;;;5049668;28;20381;-76
2021/04/01 01:25:14;;;;;;;3.05;2.75;;;11.40;98.40;;;;;;5052076;28;20382;-77
2021/04/01 01:27:40;;;;;;;8.63;2.53;;;11.20;98.00;;;;;;5053562;28;20535;-77
2021/04/01 01:30:09;;;;;;;5.25;2.20;;;11.40;97.10;;;;;;5054348;28;20385;-76
2021/04/01 01:32:39;;;;;;;3.88;2.33;;;;;;;;;;5035482;28;20386;-77
2021/04/01 01:35:18;;;;;;;2.58;1.90;;;10.80;99.90;;;;;;5036188;28;20479;-76
2021/04/01 01:37:54;;;;;;;4.30;2.58;;;11.20;99.90;;;;;;5036039;28;20479;-76
2021/04/01 01:40:24;;;;;;;4.47;2.30;;;10.90;99.50;;;;;;5053910;28;20385;-76
2021/04/01 01:42:51;;;;;;;5.00;2.30;;;;;;;;;;5053699;28;20384;-76
2021/04/01 01:45:17;;;;;;;4.40;2.10;;;;;;;;;;5053969;28;20377;-76
2021/04/01 01:47:43;;;;;;;1.95;1.75;;;;;;;;;;5053108;28;20369;-77
2021/04/01 01:50:10;;;;;;;2.97;2.25;;;;;;;;;;5053916;28;20412;-76
2021/04/01 01:52:36;;;;;;;4.57;2.35;;;;;;;;;;5053023;28;20369;-76
2021/04/01 01:55:03;;;;;;;3.55;2.20;;;;;;;;;;5035875;28;20420;-76
2021/04/01 01:57:29;;;;;;;3.17;2.10;;;;;;;;;;5053143;28;20786;-79
2021/04/01 01:59:55;;;;;;;2.85;2.25;;;;;;;;;;5053832;28;20381;-77
2021/04/01 02:02:21;;;;;;;1.90;1.70;;;;;;;;;;5053616;28;20726;-77
2021/04/01 02:04:47;;;;;;;4.75;2.22;;;;;;;;;;5034579;28;20441;-76
2021/04/01 02:07:14;;;;;;;3.80;2.03;;;;;;;;;;5053494;28;20440;-76
2021/04/01 02:09:45;;;;;;;2.80;1.90;;;;;;;;;;5052794;28;20472;-76
2021/04/01 02:12:12;;;;;;;2.58;2.30;;;;;;;;;;5047911;28;20378;-76
2021/04/01 02:14:38;;;;;;;4.90;2.20;;;;;;;;;;5032419;28;20561;-76
2021/04/01 02:17:05;;;;;;;4.93;2.60;;;;;;;;;;5033059;28;20462;-76
2021/04/01 02:19:31;;;;;;;2.67;1.77;;;;;;;;;;5015016;28;20394;-78
2021/04/01 02:21:57;;;;;;;3.67;2.22;;;;;;;;;;5015745;28;20467;-76
2021/04/01 02:24:23;;;;;;;2.67;2.10;;;;;;;;;;5033336;28;20379;-76
2021/04/01 02:26:49;;;;;;;3.40;2.10;;;;;;;;;;5032389;28;20624;-77
2021/04/01 02:29:15;;;;;;;4.13;2.30;;;;;;;;;;5032995;28;20375;-77
2021/04/01 02:31:41;;;;;;;2.60;2.13;;;;;;;;;;5032226;28;20375;-77
2021/04/01 02:34:07;;;;;;;2.10;1.90;;;;;;;;;;5033061;28;20450;-76
2021/04/01 02:36:33;;;;;;;4.15;2.25;;;;;;;;;;5014347;28;20419;-78
2021/04/01 02:38:59;;;;;;;4.78;2.15;;;;;;;;;;5032956;28;20419;-76
2021/04/01 02:41:25;;;;;;;3.60;2.10;;;;;;;;;;5033113;28;20776;-76
2021/04/01 02:43:51;;;;;;;2.10;1.92;;;;;;;;;;5032381;28;20433;-76
2021/04/01 02:46:17;;;;;;;2.50;2.13;;;;;;;;;;5015257;28;20383;-76
2021/04/01 02:48:43;;;;;;;2.60;2.40;;;;;;;;;;5031843;28;20799;-77
2021/04/01 02:51:09;;;;;;;3.70;2.10;;;;;;;;;;5032837;28;20462;-76
2021/04/01 02:53:35;;;;;;;3.80;2.10;;;;;;;;;;5031737;28;20422;-76
2021/04/01 02:56:01;;;;;;;2.10;1.90;;;;;;;;;;5032557;28;20368;-76
2021/04/01 02:58:28;;;;;;;3.00;2.15;;;;;;;;;;5032483;28;20847;-76
2021/04/01 03:00:54;;;;;;;3.22;1.90;;;;;;;;;;5031871;28;20399;-76
2021/04/01 03:03:30;;;;;;;2.92;2.17;;;;;;;;;;5032365;28;20502;-76
2021/04/01 03:05:57;;;;;;;5.72;2.72;;;;;;;;;;5031935;28;20379;-76
2021/04/01 03:08:23;;;;;;;3.70;2.35;;;;;;;;;;5032720;28;20458;-77
2021/04/01 03:10:49;;;;;;;2.78;1.90;;;;;;;;;;5031958;28;20805;-77
2021/04/01 03:13:15;;;;;;;2.97;2.13;;;;;;;;;;5032368;28;20402;-76
2021/04/01 03:15:41;;;;;;;3.20;1.90;;;;;;;;;;5013828;28;20380;-76
2021/04/01 03:18:07;;;;;;;8.43;2.90;;;;;;;;;;5032454;28;20387;-76
2021/04/01 03:20:34;;;;;;;4.05;2.20;;;;;;;;;;5031772;28;20430;-78
2021/04/01 03:23:00;;;;;;;3.40;2.58;;;;;;;;;;5032215;28;20458;-76
2021/04/01 03:25:26;;;;;;;4.60;2.60;;;;;;;;;;5032116;28;20383;-76
2021/04/01 03:27:52;;;;;;;6.10;2.40;;;;;;;;;;5031352;28;20518;-77
2021/04/01 03:30:18;;;;;;;5.07;2.47;;;;;;;;;;5032292;28;20375;-76
2021/04/01 03:32:49;;;;;;;3.30;2.42;;;;;;;;;;5031047;28;20390;-76
2021/04/01 03:35:21;;;;;;;2.80;2.17;;;;;;;;;;5031661;28;20427;-76
2021/04/01 03:37:49;;;;;;;2.75;2.20;;;;;;;;;;5031142;28;20474;-76
2021/04/01 03:40:15;;;;;;;3.50;2.50;;;;;;;;;;5031686;28;20386;-76
2021/04/01 03:42:41;;;;;;;4.70;2.20;;;;;;;;;;5031084;28;20437;-76
2021/04/01 03:45:09;;;;;;;3.65;2.00;;;;;;;;;;5032143;28;20379;-76
2021/04/01 03:47:35;;;;;;;3.20;2.40;;;;;;;;;;5030511;28;20379;-79
2021/04/01 03:50:01;;;;;;;2.90;1.65;;;;;;;;;;5031568;28;20936;-76
2021/04/01 03:52:27;;;;;;;5.40;2.60;;;;;;;;;;5031813;28;20375;-76
2021/04/01 03:55:01;;;;;;;2.63;2.30;;;;;;;;;;5030928;28;20414;-77
2021/04/01 03:57:27;;;;;;;3.67;2.42;;;;;;;;;;5031811;28;20406;-76
2021/04/01 04:00:28;;;;;;;3.42;2.80;;;;;;;;;;5030723;28;20387;-76
2021/04/01 04:03:07;;;;;;;3.25;2.00;;;;;;;;;;5026576;28;20383;-76
2021/04/01 04:05:48;;;;;;;4.40;2.43;;;;;;;;;;5031855;28;20427;-76
2021/04/01 04:13:24;;;;;;;4.78;2.28;;;;;;;;;;5045707;28;20370;-76
2021/04/01 04:15:50;;;;;;;3.60;2.50;;;;;;;;;;5050758;28;20381;-76
2021/04/01 04:18:17;;;;;;;3.00;2.22;;;;;;;;;;5051460;28;20435;-76
2021/04/01 04:20:43;;;;;;;4.82;2.60;;;;;;;;;;5050752;28;20409;-77
2021/04/01 04:23:11;;;;;;;3.38;2.38;;;;;;;;;;5034003;28;20781;-76
2021/04/01 04:25:37;;;;;;;3.40;2.08;;;;;;;;;;5051264;28;20453;-78
2021/04/01 04:30:29;;;;;;;4.70;2.60;;;;;;;;;;5051422;28;20461;-76
2021/04/01 04:32:56;;;;;;;3.10;2.33;;;;;;;;;;5050500;28;20382;-76
2021/04/01 04:35:22;;;;;;;4.13;2.58;;;;;;;;;;5051377;28;20447;-77
2021/04/01 04:37:48;;;;;;;3.08;2.60;;;;;;;;;;5050556;28;20389;-76
2021/04/01 04:40:14;;;;;;;4.93;2.80;;;;;;;;;;5051184;28;20432;-77
2021/04/01 04:42:40;;;;;;;4.53;2.78;;;;;;;;;;5032549;28;20384;-78
2021/04/01 04:45:07;;;;;;;3.70;3.10;;;;;;;;;;5050925;28;20750;-76
2021/04/01 04:47:33;;;;;;;5.13;2.80;;;;;;;;;;5051259;28;20381;-76
2021/04/01 04:49:59;;;;;;;2.50;2.30;;;;;;;;;;5049905;28;20373;-76
2021/04/01 04:52:26;;;;;;;6.00;2.63;;;;;;;;;;5051010;28;20392;-76
2021/04/01 04:54:52;;;;;;;3.70;2.30;;;;;;;;;;5049920;28;20492;-76
2021/04/01 04:57:38;;;;;;;3.92;2.25;;;;;;;;;;5050935;28;20369;-77
2021/04/01 05:05:20;;;;;;;4.20;2.30;;;;;;;;;;5050274;28;20405;-77
2021/04/01 05:07:46;;;;;;;4.10;2.30;;;;;;;;;;5049837;28;20377;-76
2021/04/01 05:10:12;;;;;;;2.90;2.10;;;;;;;;;;5050176;28;20408;-76
2021/04/01 05:12:38;;;;;;;3.42;2.40;;;;;;;;;;5040344;28;20871;-79
2021/04/01 05:15:04;;;;;;;3.27;2.10;;;;;;;;;;5029483;28;20418;-77
2021/04/01 05:17:30;;;;;;;4.80;2.40;;;;;;;;;;5030005;28;20454;-76
2021/04/01 05:20:03;;;;;;;4.85;2.60;;;;;;;;;;5029148;28;20380;-76
2021/04/01 05:22:40;;;;;;;3.90;2.90;;;;;;;;;;5029871;28;20739;-77
2021/04/01 05:25:07;;;;;;;3.95;2.80;;;;;;;;;;5029515;28;20382;-78
2021/04/01 05:27:43;;;;;;;4.18;2.65;;;;;;;;;;5029878;28;20383;-77
2021/04/01 05:30:10;;;;;;;4.18;2.40;;;;;;;;;;5029686;28;20874;-77
2021/04/01 05:32:39;;;;;;;2.50;2.22;;;;;;;;;;5029851;28;20375;-77
2021/04/01 05:35:08;;;;;;;3.88;2.42;;;;;;;;;;5029307;28;20488;-77
2021/04/01 05:37:35;;;;;;;3.30;2.17;;;;;;;;;;5029755;28;20474;-76
2021/04/01 05:40:02;;;;;;;3.58;2.67;;;;;;;;;;5028945;28;20440;-76
2021/04/01 05:42:35;;;;;;;3.70;2.70;;;;;;;;;;5030774;28;20862;-77
2021/04/01 05:47:46;;;;;;;3.55;2.50;;;;;;;;;;5029701;28;20375;-77
2021/04/01 06:06:01;;;;;;;5.60;2.53;;;;;;;;;;5107550;27;20380;-76
2021/04/01 06:08:31;;;;;;;3.20;2.80;;;;;;;;;;5108967;28;20421;-76
2021/04/01 06:10:57;;;;;;;3.22;2.50;;;;;;;;;;5107592;28;20915;-77
2021/04/01 06:13:28;;;;;;;3.95;2.58;;;;;;;;;;5108737;28;20868;-76
2021/04/01 06:15:54;;;;;;;5.80;2.80;;;;;;;;;;5107790;28;20401;-77
2021/04/01 06:18:21;;;;;;;4.45;2.60;;;;;;;;;;5108561;28;20365;-76
2021/04/01 06:20:48;;;;;;;8.38;2.63;;;;;;;;;;5107648;28;20410;-78
2021/04/01 06:23:41;;;;;;;5.10;2.55;;;;;;;;;;5108241;28;20374;-76
2021/04/01 06:26:13;;;;;;;3.97;2.78;;;;;;;;;;5104703;28;20397;-76
2021/04/01 06:28:49;;;;;;;5.38;2.65;;;;;;;;;;5108101;28;20753;-77
2021/04/01 06:31:36;;;;;;;7.10;2.60;;;;;;;;;;5107048;28;20908;-76
2021/04/01 06:34:04;;;;;;;3.60;2.40;;;;;;;;;;5107001;27;20402;-77
2021/04/01 06:36:33;;;;;;;2.58;2.22;;;;;;;;;;5106798;28;20438;-77
2021/04/01 06:38:59;;;;;;;3.25;2.40;;;;;;;;;;5109002;28;20737;-77
2021/04/01 06:41:29;;;;;;;3.50;2.63;;;;;;;;;;5108101;28;20396;-76
2021/04/01 06:44:04;;;;;;;5.53;2.88;;;;;;;;;;5107037;28;20397;-76
2021/04/01 06:46:41;;;;;;;4.82;2.38;;;;;;;;;;5107633;28;20880;-76
2021/04/01 06:52:09;;;;;;;3.30;2.43;;;;;;;;;;5106261;28;20825;-77
2021/04/01 07:02:41;;;;;;;6.40;2.30;;;;;;;;;;5107808;28;20370;-76
2021/04/01 07:05:25;;;;;;;4.32;2.20;;;;;;;;;;5104967;28;20495;-77
2021/04/01 07:08:10;;;;;;;5.07;2.72;;;;;;;;;;5105248;28;20370;-77
2021/04/01 07:10:45;;;;;;;4.65;2.83;;;;;;;;;;5106487;28;20443;-77
2021/04/01 07:13:15;;;;;;;4.95;3.00;;;;;;;;;;5105747;28;20385;-77
2021/04/01 07:15:45;;;;;;;4.37;3.00;;;;;;;;;;5102768;28;20366;-78
2021/04/01 07:18:27;;;;;;;4.00;2.40;;;;;;;;;;5093372;28;20460;-78
2021/04/01 07:48:45;;;;;;;6.57;2.47;;;;;;;;;;5071314;28;20375;-75
2021/04/01 07:54:10;;;;;;;3.63;2.33;;;;;;;;;;5109246;28;20383;-78
2021/04/01 08:04:43;;;;;;;4.68;2.15;;;;;;;;;;5112701;28;20447;-77
2021/04/01 08:07:14;;;;;;;5.35;2.55;;;;;;;;;;5101549;28;20397;-77
2021/04/01 08:09:42;;;;;;;3.78;2.33;;;;;;;;;;5107567;28;20443;-77
2021/04/01 08:12:18;;;;;;;4.20;2.80;;;;;;;;;;5092866;28;20386;-76
2021/04/01 08:14:52;;;;;;;4.20;2.70;;;16.10;99.90;;;;;;5099596;28;20418;-76
2021/04/01 08:17:21;;;;;;;4.20;2.60;;;;;;;;;;5100658;28;20378;-77
2021/04/01 08:19:51;;;;;;;4.95;2.58;;;;;;;;;;5092420;28;20849;-77
2021/04/01 08:22:24;;;;;;;3.38;2.45;;;;;;;;;;5109037;28;20386;-76
2021/04/01 08:24:55;;;;;;;4.80;2.78;;;;;;;;;;5091744;28;20886;-78
2021/04/01 08:35:02;;;;;;;6.03;3.20;;;;;;;;;;5102003;28;20405;-77
2021/04/01 08:37:31;;;;;;;4.25;2.03;;;;;;;;;;5104960;28;20373;-77
2021/04/01 08:39:59;;;;;;;4.80;2.65;;;;;;;;;;5094351;28;20865;-78
2021/04/01 08:42:33;;;;;;;7.15;2.47;;;;;;;;;;5107927;28;20378;-78
2021/04/01 08:45:29;;;;;;;5.63;2.30;;;;;;;;;;5100097;28;20404;-78
2021/04/01 08:48:10;;;;;;;3.17;2.22;;;;;;;;;;5094168;28;20865;-78
2021/04/01 08:51:03;;;;;;;2.90;2.10;;;;;;;;;;5106411;28;20850;-78
2021/04/01 08:53:32;;;;;;;5.38;2.30;;;;;;;;;;5103974;28;20866;-78
2021/04/01 08:56:28;;;;;;;3.22;2.20;;;;;;;;;;5107696;28;20712;-77
2021/04/01 08:59:12;;;;;;;4.32;2.60;;;;;;;;;;5099320;28;20435;-79
2021/04/01 09:01:42;;;;;;;3.45;2.00;;;;;;;;;;5097385;28;20379;-77
2021/04/01 09:04:08;;;;;;;6.47;2.63;;;;;;;;;;5107173;28;20461;-77
2021/04/01 09:06:35;;;;;;;3.70;2.40;;;;;;;;;;5096591;28;20387;-77
2021/04/01 09:09:09;;;;;;;3.33;2.53;;;;;;;;;;5102096;28;20370;-75
2021/04/01 09:14:15;;;;;;;6.63;2.30;;;;;;;;;;5091698;28;20388;-75
2021/04/01 09:16:48;;;;;;;3.72;2.22;;;;;;;;;;5105247;28;20370;-75
2021/04/01 09:19:25;;;;;;;4.15;2.40;;;;;;;;;;5101617;28;20364;-75
2021/04/01 09:21:52;;;;;;;2.20;2.00;;;;;;;;;;5095403;28;20362;-75
2021/04/01 09:24:20;;;;;;;3.70;1.90;;;;;;;;;;5107689;28;20409;-74
2021/04/01 09:26:49;;;;;;;3.22;2.30;;;;;;;;;;5089770;28;20882;-76
2021/04/01 09:29:16;;;;;;;3.78;2.47;;;;;;;;;;5101142;28;20435;-75
2021/04/01 09:31:47;;;;;;;2.83;2.50;;;;;;;;;;5111322;28;20368;-75
2021/04/01 09:34:16;;;;;;;3.33;2.28;;;20.50;89.50;;;;;;5091118;28;20453;-74
2021/04/01 09:36:43;;;;;;;2.97;2.10;;;;;;;;;;5091098;28;20377;-75
2021/04/01 09:39:25;;;;;;;3.80;2.40;;;;;;;;;;5090105;28;20374;-74
2021/04/01 09:41:56;;;;;;;3.90;2.90;;;;;;;;;;5091049;28;20373;-74
2021/04/01 09:44:22;;;;;;;2.88;2.10;;;;;;;;;;5091011;28;20523;-74
2021/04/01 09:46:56;;;;;;;4.72;2.53;;;;;;;;;;5091041;28;20370;-75
2021/04/01 09:49:22;;;;;;;2.67;1.95;;;;;;;;;;5089466;28;20386;-74
2021/04/01 09:51:55;;;;;;;2.95;2.40;;;;;;;;;;5090707;28;20374;-74
2021/04/01 09:54:21;;;;;;;3.20;1.60;;;;;;;;;;5090218;28;20850;-74
2021/04/01 09:56:57;;;;;;;3.47;2.00;;;;;;;;;;5090927;28;20443;-74
2021/04/01 10:00:07;;;;;;;2.20;1.80;;;;;;;;;;5090824;28;20373;-74
2021/04/01 10:02:29;;;;;;;3.60;1.80;;;;;;;;;;5088116;28;20807;-73
2021/04/01 10:04:57;;;;;;;2.40;1.60;;;;;;;;;;5090417;28;20414;-78
2021/04/01 10:07:24;;;;;;;2.42;1.98;;;;;;;;;;5090598;28;20451;-75
2021/04/01 10:09:52;;;;;;;3.30;1.60;;;;;;;;;;5089517;28;20370;-74
2021/04/01 10:12:19;;;;;;;1.70;1.60;;;;;;;;;;5089807;28;20545;-74
2021/04/01 10:14:50;;;;;;;3.13;1.95;;;;;;;;;;5090525;28;20865;-73
2021/04/01 10:17:17;;;;;;;2.00;1.60;;;;;;;;;;5087662;28;21030;-74
2021/04/01 10:19:48;;;;;;;2.10;1.70;;;;;;;;;;5090374;28;20846;-74
2021/04/01 10:22:20;;;;;;;1.83;1.63;;;;;;;;;;5089759;28;20404;-74
2021/04/01 10:24:47;;;;;;;2.30;1.67;;;;;;;;;;5090258;28;20417;-74
2021/04/01 10:27:25;;;;;;;3.00;1.58;;;;;;;;;;5088397;28;20411;-73
2021/04/01 10:32:23;;;;;;;3.35;1.58;;;;;;;;;;5089453;28;20382;-75
2021/04/01 10:34:54;;;;;;;1.70;1.50;;;;;;;;;;5089308;28;20410;-74
2021/04/01 10:37:21;;;;;;;2.10;1.55;;;;;;;;;;5089755;28;20474;-75
2021/04/01 10:39:47;;;;;;;2.53;1.90;;;;;;;;;;5090540;28;20914;-75
2021/04/01 10:42:14;;;;;;;2.13;1.90;;;21.70;73.90;;;;;;5089714;28;20374;-76
2021/04/01 10:44:41;;;;;;;2.60;1.80;;;;;;;;;;5090301;28;20437;-75
2021/04/01 10:47:08;;;;;;;3.07;1.80;;;;;;;;;;5088521;28;20381;-75
2021/04/01 10:49:38;;;;;;;2.50;1.60;;;;;;;;;;5090371;28;20378;-74
2021/04/01 10:52:11;;;;;;;6.90;2.00;;;;;;;;;;5092165;28;20416;-75
2021/04/01 10:54:38;;;;;;;3.40;1.77;;;;;;;;;;5092913;28;20387;-74
2021/04/01 10:57:05;;;;;;;3.10;1.55;;;;;;;;;;5093109;28;20374;-73
2021/04/01 10:59:38;;;;;;;2.92;1.60;;;;;;;;;;5094102;28;20371;-76
2021/04/01 11:02:10;;;;;;;2.30;1.70;;;;;;;;;;5093372;28;20442;-75
2021/04/01 11:04:36;;;;;;;2.20;2.00;;;;;;;;;;5093501;28;20487;-73
2021/04/01 11:07:03;;;;;;;3.10;1.90;;;;;;;;;;5093559;28;20370;-78
2021/04/01 11:09:30;;;;;;;1.90;1.70;;;;;;;;;;5092580;28;20749;-74
2021/04/01 11:12:13;;;;;;;1.60;1.47;;;;;;;;;;5093941;28;20378;-75
2021/04/01 11:14:40;;;;;;;1.80;1.50;;;;;;;;;;5093476;28;20730;-75
2021/04/01 11:17:08;;;;;;;2.38;2.03;;;;;;;;;;5093037;28;20423;-75
2021/04/01 11:19:36;;;;;;;5.20;2.20;;;;;;;;;;5093721;28;20378;-75
2021/04/01 11:22:04;;;;;;;3.90;2.00;;;;;;;;;;5093265;28;20470;-77
2021/04/01 11:24:33;;;;;;;3.37;1.60;;;;;;;;;;5092466;28;20480;-76
2021/04/01 11:27:13;;;;;;;2.38;1.60;;;;;;;;;;5093313;28;20362;-76
2021/04/01 11:29:41;;;;;;;2.53;1.70;;;;;;;;;;5093673;28;20857;-76
2021/04/01 11:32:12;;;;;;;2.22;1.60;;;;;;;;;;5092549;28;20382;-76
2021/04/01 11:34:38;;;;;;;1.77;1.67;;;;;;;;;;5093212;28;20429;-74
2021/04/01 11:37:06;;;;;;;1.87;1.77;;;;;;;;;;5092668;28;20780;-78
2021/04/01 11:39:39;;;;;;;3.80;1.70;;;25.90;68.70;;;;;;5093813;28;20842;-74
2021/04/01 11:42:09;;;;;;;3.38;2.20;;;25.90;69.90;;;;;;5092713;28;20861;-76
2021/04/01 11:44:37;;;;;;;2.20;1.88;;;26.20;69.70;;;;;;5093293;28;20402;-75
2021/04/01 11:47:30;;;;;;;4.45;1.63;;;;;;;;;;5093014;28;20382;-76
2021/04/01 11:49:55;;;;;;;2.78;1.60;;;27.50;59.80;;;;;;5068790;28;20404;-75
2021/04/01 11:52:22;;;;;;;2.90;2.00;;;;;;;;;;5071819;28;20441;-75
2021/04/01 11:54:53;;;;;;;3.00;1.58;;;;;;;;;;5072909;28;20449;-75
2021/04/01 11:57:30;;;;;;;3.00;1.80;;;;;;;;;;5072041;28;20380;-75
2021/04/01 12:00:10;;;;;;;1.92;1.63;;;;;;;;;;5073011;28;20368;-75
2021/04/01 12:03:02;;;;;;;3.50;1.90;;;;;;;;;;5072976;28;20368;-76
2021/04/01 12:05:31;;;;;;;3.20;1.70;;;;;;;;;;5084459;28;20414;-76
2021/04/01 12:07:57;;;;;;;4.50;1.83;;;;;;;;;;5089547;28;20378;-74
2021/04/01 12:10:23;;;;;;;3.97;1.63;;;;;;;;;;5091384;28;20435;-76
2021/04/01 12:12:53;;;;;;;2.28;1.90;;;;;;;;;;5091940;28;20469;-76
2021/04/01 12:15:28;;;;;;;3.30;2.03;;;29.10;59.00;;;;;;5091222;28;20830;-74
2021/04/01 12:17:55;;;;;;;3.05;1.63;;;;;;;;;;5092342;28;20889;-76
2021/04/01 12:20:22;;;;;;;2.05;1.85;;;29.40;60.10;;;;;;5091722;28;20443;-74
2021/04/01 12:22:47;;;;;;;2.63;1.67;;;28.30;64.90;;;;;;5092248;28;20378;-77
2021/04/01 12:25:15;;;;;;;2.00;1.60;;;;;;;;;;5091535;28;20439;-77
2021/04/01 12:27:52;;;;;;;4.28;1.60;;;28.40;62.70;;;;;;5092379;28;20363;-77
2021/04/01 12:30:24;;;;;;;2.13;1.70;;;27.30;55.60;;;;;;5090047;28;20386;-76
2021/04/01 12:32:51;;;;;;;3.70;1.58;;;;;;;;;;5092260;28;20382;-76
2021/04/01 12:35:18;;;;;;;2.40;1.75;;;;;;;;;;5091401;28;20447;-76
2021/04/01 12:37:44;;;;;;;2.40;1.80;;;;;;;;;;5090965;28;20866;-76
2021/04/01 12:40:10;;;;;;;5.22;1.65;;;;;;;;;;5090926;28;20374;-80
2021/04/01 12:42:38;;;;;;;2.70;1.73;;;;;;;;;;5091825;28;20732;-76
2021/04/01 12:45:20;;;;;;;3.33;1.60;;;27.70;56.30;;;;;;5091960;28;20788;-76
2021/04/01 12:47:46;;;;;;;1.88;1.50;;;;;;;;;;5091956;28;20477;-76
2021/04/01 12:50:13;;;;;;;2.28;1.77;;;;;;;;;;5091324;28;20408;-77
2021/04/01 12:52:46;;;;;;;3.90;1.60;;;;;;;;;;5091973;28;20389;-76
2021/04/01 12:55:16;;;;;;;2.20;1.80;;;;;;;;;;5091001;28;20449;-76
2021/04/01 12:57:43;;;;;;;1.70;1.60;;;;;;;;;;5091703;28;20384;-78
2021/04/01 13:00:10;;;;;;;3.33;1.70;;;;;;;;;;5089999;28;20869;-77
2021/04/01 13:02:37;;;;;;;2.50;2.00;;;;;;;;;;5092140;28;20378;-76
2021/04/01 13:05:05;;;;;;;2.80;1.85;;;;;;;;;;5091495;28;20410;-74
2021/04/01 13:07:45;;;;;;;3.47;1.90;;;;;;;;;;5090878;28;20382;-77
2021/04/01 13:10:39;;;;;;;2.92;1.48;;;;;;;;;;5090905;28;20773;-78
2021/04/01 13:12:58;;;;;;;1.85;1.60;;;;;;;;;;5091068;28;20457;-77
2021/04/01 13:15:25;;;;;;;2.85;2.05;;;;;;;;;;5090225;28;20409;-78
2021/04/01 13:17:51;;;;;;;1.80;1.70;;;;;;;;;;5091491;28;20370;-78
2021/04/01 13:20:17;;;;;;;2.90;1.73;;;;;;;;;;5090514;28;20366;-77
2021/04/01 13:23:32;;;;;;;3.80;2.00;;;;;;;;;;5090637;28;20370;-77
2021/04/01 13:25:30;;;;;;;3.70;1.70;;;;;;;;;;5082157;28;20393;-78
2021/04/01 13:28:02;;;;;;;2.55;1.70;;;29.90;60.30;;;;;;5090586;28;20466;-78
2021/04/01 13:30:30;;;;;;;2.10;1.90;;;;;;;;;;5090275;28;20467;-76
2021/04/01 13:35:38;;;;;;;2.33;1.80;;;;;;;;;;5090143;28;20420;-75
2021/04/01 13:40:42;;;;;;;1.38;1.27;;;;;;;;;;5090427;28;20389;-79
2021/04/01 13:43:11;;;;;;;2.65;1.50;;;;;;;;;;5091898;28;20371;-80
2021/04/01 13:45:38;;;;;;;2.00;1.70;;;28.90;53.50;;;;;;5090660;28;20374;-77
2021/04/01 13:48:07;;;;;;;2.20;2.00;;;;;;;;;;5091080;28;20428;-77
2021/04/01 13:50:36;;;;;;;2.42;1.83;;;;;;;;;;5089980;28;20366;-79
2021/04/01 14:04:01;;;;;;;2.80;1.30;;;;;;;;;;5090046;28;20402;-80
2021/04/01 14:09:28;;;;;;;2.65;1.20;;;;;;;;;;5050038;28;20377;-79
2021/04/01 14:11:56;;;;;;;1.60;1.40;;;;;;;;;;5050946;28;20424;-80
2021/04/01 14:14:23;;;;;;;2.30;1.45;;;;;;;;;;5049795;28;20415;-79
2021/04/01 14:16:51;;;;;;;2.40;1.73;;;;;;;;;;5050704;28;20381;-79
2021/04/01 14:19:19;;;;;;;2.47;1.40;;;;;;;;;;5049849;28;20380;-80
2021/04/01 14:21:45;;;;;;;2.75;1.48;;;;;;;;;;5050597;28;20396;-79
2021/04/01 14:24:17;;;;;;;1.73;1.27;;;;;;;;;;5050593;28;20366;-79
2021/04/01 14:27:05;;;;;;;1.88;1.50;;;;;;;;;;5052631;28;20416;-77
2021/04/01 14:29:32;;;;;;;1.43;1.33;;;;;;;;;;5054305;28;20373;-81
2021/04/01 14:31:58;;;;;;;3.08;1.58;;;;;;;;;;5054449;28;20380;-76
2021/04/01 14:34:25;;;;;;;2.72;1.50;;;;;;;;;;5053691;28;20417;-78
2021/04/01 14:36:52;;;;;;;2.30;1.60;;;;;;;;;;5054309;28;20393;-79
2021/04/01 14:39:19;;;;;;;3.70;1.70;;;;;;;;;;5053383;28;20369;-78
2021/04/01 14:41:55;;;;;;;1.92;1.60;;;28.20;55.50;;;;;;5054339;28;20726;-79
2021/04/01 14:44:21;;;;;;;3.72;1.60;;;;;;;;;;5053370;28;20925;-79
2021/04/01 14:46:49;;;;;;;3.20;1.70;;;;;;;;;;5053891;28;20388;-79
2021/04/01 14:49:19;;;;;;;2.20;1.80;;;;;;;;;;5053839;28;20423;-82
2021/04/01 14:51:46;;;;;;;1.98;1.77;;;;;;;;;;5036398;28;20405;-76
2021/04/01 14:54:14;;;;;;;5.40;2.40;;;;;;;;;;5054154;28;20408;-77
2021/04/01 14:56:47;;;;;;;2.45;1.75;;;;;;;;;;5052199;28;20460;-80
2021/04/01 14:59:16;;;;;;;2.15;1.60;;;;;;;;;;5054238;28;20455;-79
2021/04/01 15:01:44;;;;;;;2.50;1.60;;;;;;;;;;5053440;28;20453;-80
2021/04/01 15:04:12;;;;;;;2.08;1.70;;;;;;;;;;5065237;28;20409;-78
2021/04/01 15:06:38;;;;;;;2.10;1.60;;;;;;;;;;5093061;28;20428;-79
2021/04/01 15:09:05;;;;;;;1.90;1.35;;;;;;;;;;5092891;28;20385;-78
2021/04/01 15:11:32;;;;;;;3.70;1.70;;;;;;;;;;5093629;28;20376;-79
2021/04/01 15:13:58;;;;;;;3.10;1.60;;;;;;;;;;5093895;28;20374;-78
2021/04/01 15:16:25;;;;;;;3.30;1.60;;;;;;;;;;5093196;28;20369;-79
2021/04/01 15:18:51;;;;;;;1.90;1.70;;;;;;;;;;5094085;28;20710;-80
2021/04/01 15:21:17;;;;;;;2.83;1.70;;;;;;;;;;5093815;28;20431;-80
2021/04/01 15:23:44;;;;;;;2.05;1.60;;;;;;;;;;5093630;28;20366;-78
2021/04/01 15:26:10;;;;;;;3.00;1.73;;;;;;;;;;5092501;28;20426;-79
2021/04/01 15:28:37;;;;;;;2.40;1.90;;;;;;;;;;5093113;28;20450;-80
2021/04/01 15:31:04;;;;;;;5.43;1.70;;;;;;;;;;5094081;28;20420;-80
2021/04/01 15:33:30;;;;;;;2.00;1.80;;;;;;;;;;5091835;28;20382;-77
2021/04/01 15:35:56;;;;;;;1.50;1.35;;;;;;;;;;5094963;28;20402;-78
2021/04/01 15:38:23;;;;;;;3.30;2.00;;;;;;;;;;5093958;28;20382;-79
2021/04/01 15:40:49;;;;;;;2.10;1.60;;;;;;;;;;5095403;28;20457;-78
2021/04/01 15:43:16;;;;;;;3.88;1.40;;;;;;;;;;5095007;28;20866;-80
2021/04/01 15:45:42;;;;;;;3.60;1.90;;;;;;;;;;5094792;28;20379;-78
2021/04/01 15:48:08;;;;;;;3.30;1.90;;;;;;;;;;5086557;28;20489;-80
2021/04/01 15:50:35;;;;;;;3.08;2.13;;;;;;;;;;5081970;28;20374;-78
2021/04/01 15:53:01;;;;;;;2.38;1.80;;;;;;;;;;5085715;28;20393;-78
2021/04/01 15:55:27;;;;;;;3.17;2.17;;;;;;;;;;5083621;28;20410;-78
2021/04/01 15:57:53;;;;;;;3.33;2.30;;;;;;;;;;5079473;28;20449;-81
2021/04/01 16:00:19;;;;;;;2.10;1.90;;;;;;;;;;5083774;28;20396;-81
2021/04/01 16:02:48;;;;;;;4.77;1.90;;;;;;;;;;5083406;28;20378;-80
2021/04/01 16:05:14;;;;;;;3.40;2.08;;;;;;;;;;5081881;28;20421;-78
2021/04/01 16:07:40;;;;;;;2.53;1.90;;;;;;;;;;5080945;28;20433;-79
2021/04/01 16:10:07;;;;;;;2.45;2.05;;;;;;;;;;5081467;28;20895;-79
2021/04/01 16:12:34;;;;;;;5.35;1.80;;;;;;;;;;5081190;28;20393;-77
2021/04/01 16:15:00;;;;;;;2.33;2.05;;;;;;;;;;5082490;28;20406;-78
2021/04/01 16:17:26;;;;;;;2.30;2.10;;;;;;;;;;5083831;28;20423;-79
2021/04/01 16:19:53;;;;;;;4.38;2.40;;;;;;;;;;5080258;28;20824;-77
2021/04/01 16:22:20;;;;;;;2.85;2.35;;;;;;;;;;5083543;28;20382;-78
2021/04/01 16:24:46;;;;;;;3.58;2.40;;;;;;;;;;5084286;28;20430;-78
2021/04/01 16:27:13;;;;;;;2.40;2.20;;;;;;;;;;5093492;28;20415;-79
2021/04/01 16:29:39;;;;;;;2.10;1.80;;;;;;;;;;5091474;28;20727;-79
2021/04/01 16:32:05;;;;;;;3.85;2.28;;;;;;;;;;5091606;28;20370;-78
2021/04/01 16:34:33;;;;;;;3.65;2.28;;;;;;;;;;5090436;28;20421;-76
2021/04/01 16:36:59;;;;;;;4.40;2.00;;;;;;;;;;5091313;28;20374;-79
2021/04/01 16:39:26;;;;;;;2.67;2.00;;;;;;;;;;5080378;28;21146;-80